Time;durP1;ratioP1;P1;durP2;ratioP2;P2;SDS_P1;SDS_P2;PMS_P1;PMS_P2;Temp;Humidity;BMP_temperature;BMP_pressure;BME280_temperature;BME280_humidity;BME280_pressure;Samples;Min_cycle;Max_cycle;Signal;HPM_P1;HPM_P2
2023/05/05 02:07:00;;;;;;;9.23;4.13;;;;;;;;;;5096406;27;20381;-66
2023/05/05 02:09:28;;;;;;;8.60;4.57;;;;;;;;;;5077872;28;20072;-68
2023/05/05 02:11:55;;;;;;;10.60;5.03;;;;;;;;;;5064538;28;20068;-66
2023/05/05 02:14:23;;;;;;;10.50;4.70;;;;;;;;;;5075787;28;20044;-68
2023/05/05 02:16:50;;;;;;;10.65;5.10;;;;;;;;;;5085247;28;20055;-68
2023/05/05 02:19:16;;;;;;;8.43;4.32;;;;;;;;;;5076845;28;20151;-68
2023/05/05 02:21:43;;;;;;;8.65;4.43;;;;;;;;;;5075672;28;20052;-66
2023/05/05 02:24:11;;;;;;;9.18;4.70;;;;;;;;;;5077339;28;20060;-66
2023/05/05 02:26:39;;;;;;;14.23;4.77;;;;;;;;;;5056447;28;20053;-67
2023/05/05 02:29:07;;;;;;;11.43;4.75;;;;;;;;;;5057858;28;20437;-66
2023/05/05 02:31:35;;;;;;;9.68;4.65;;;;;;;;;;5054844;28;20114;-66
2023/05/05 02:34:03;;;;;;;9.10;4.80;;;;;;;;;;5057891;28;20116;-65
2023/05/05 02:36:30;;;;;;;10.73;5.13;;;;;;;;;;5053096;28;20053;-66
2023/05/05 02:38:59;;;;;;;10.70;4.70;;;;;;;;;;5050072;28;20075;-66
2023/05/05 02:41:28;;;;;;;8.68;4.55;;;;;;;;;;5048740;28;20061;-65
2023/05/05 02:43:55;;;;;;;13.10;5.07;;;;;;;;;;5037505;28;20151;-67
2023/05/05 02:46:22;;;;;;;9.77;4.75;;;;;;;;;;5037994;28;20080;-68
2023/05/05 02:48:49;;;;;;;10.07;4.72;;;;;;;;;;5043709;28;20064;-66
2023/05/05 02:51:15;;;;;;;9.93;4.75;;;;;;;;;;5058186;28;20111;-66
2023/05/05 02:53:42;;;;;;;10.82;4.65;;;;;;;;;;5053376;28;20138;-66
2023/05/05 02:56:14;;;;;;;13.20;4.50;;;;;;;;;;5054886;28;20045;-68
2023/05/05 02:58:46;;;;;;;8.73;4.68;;;;;;;;;;5046611;28;20056;-66
2023/05/05 03:01:25;;;;;;;9.02;5.22;;;;;;;;;;5040629;28;20065;-66
2023/05/05 03:03:54;;;;;;;9.23;4.63;;;;;;;;;;5032218;28;20079;-66
2023/05/05 03:06:21;;;;;;;9.10;4.68;;;;;;;;;;5062652;28;20067;-66
2023/05/05 03:08:51;;;;;;;9.10;4.32;;;;;;;;;;5065843;28;20071;-65
2023/05/05 03:11:20;;;;;;;9.40;4.18;;;;;;;;;;5070567;28;20057;-67
2023/05/05 03:13:50;;;;;;;9.73;4.63;;;;;;;;;;5073641;28;20120;-68
2023/05/05 03:16:17;;;;;;;10.85;5.00;;;;;;;;;;5085842;28;20158;-66
2023/05/05 03:18:45;;;;;;;9.00;4.40;;;;;;;;;;5072635;28;20317;-65
2023/05/05 03:21:12;;;;;;;8.70;4.68;;;;;;;;;;5088791;28;20105;-67
2023/05/05 03:23:38;;;;;;;8.52;4.43;;;;;;;;;;5082747;28;20062;-66
2023/05/05 03:26:04;;;;;;;8.88;4.47;;;;;;;;;;5084520;28;20044;-66
2023/05/05 03:28:31;;;;;;;11.05;4.68;;;;;;;;;;5076894;28;20059;-68
2023/05/05 03:30:59;;;;;;;10.13;5.18;;;;;;;;;;5078956;28;20060;-68
2023/05/05 03:33:25;;;;;;;9.23;4.45;;;;;;;;;;5084468;28;20064;-66
2023/05/05 03:35:52;;;;;;;9.48;4.38;;;;;;;;;;5066215;28;20058;-65
2023/05/05 03:38:18;;;;;;;8.88;4.40;;;;;;;;;;5070116;28;20064;-68
2023/05/05 03:40:44;;;;;;;8.82;4.55;;;;;;;;;;5059997;28;20068;-67
2023/05/05 03:43:11;;;;;;;12.02;5.32;;;;;;;;;;5064406;28;20049;-66
2023/05/05 03:45:38;;;;;;;10.00;4.95;;;;;;;;;;5056417;28;20566;-66
2023/05/05 03:48:08;;;;;;;9.20;4.78;;;;;;;;;;5062002;28;20148;-67
2023/05/05 03:50:34;;;;;;;9.32;4.88;;;;;;;;;;5060137;28;20059;-68
2023/05/05 03:53:01;;;;;;;9.57;4.97;;;;;;;;;;5084961;28;20147;-67
2023/05/05 03:55:30;;;;;;;9.20;5.00;;;;;;;;;;5071312;28;20048;-66
2023/05/05 03:57:56;;;;;;;10.95;4.70;;;;;;;;;;5063822;28;20106;-67
2023/05/05 04:00:23;;;;;;;8.60;4.78;;;;;;;;;;5061905;28;20095;-65
2023/05/05 04:02:50;;;;;;;10.85;4.40;;;;;;;;;;5077807;28;20102;-67
2023/05/05 04:05:21;;;;;;;9.05;5.15;;;;;;;;;;5076717;28;20060;-66
2023/05/05 04:07:47;;;;;;;9.80;5.10;;;;;;;;;;5084485;28;20066;-65
2023/05/05 04:10:14;;;;;;;8.68;4.80;;;;;;;;;;5082480;28;20066;-66
2023/05/05 04:12:40;;;;;;;9.60;4.85;;;;;;;;;;5072354;28;20083;-66
2023/05/05 04:15:07;;;;;;;9.57;4.80;;;;;;;;;;5078252;28;20059;-68
2023/05/05 04:17:34;;;;;;;9.07;4.60;;;;;;;;;;5080842;28;20067;-67
2023/05/05 04:20:00;;;;;;;12.35;4.43;;;;;;;;;;5099037;28;20048;-66
2023/05/05 04:22:28;;;;;;;8.63;4.70;;;;;;;;;;5076522;28;20184;-68
2023/05/05 04:24:58;;;;;;;9.98;4.65;;;;;;;;;;5075291;28;20056;-68
2023/05/05 04:27:27;;;;;;;10.63;4.35;;;;;;;;;;5076955;28;20059;-67
2023/05/05 04:29:56;;;;;;;9.75;4.28;;;;;;;;;;5081045;28;20056;-66
2023/05/05 04:32:24;;;;;;;;;;;;;;;;;;5078196;28;20052;-67
2023/05/05 04:34:50;;;;;;;7.90;4.10;;;;;;;;;;5070467;28;19924;-67
2023/05/05 04:37:19;;;;;;;10.50;4.47;;;;;;;;;;5097230;28;20032;-65
2023/05/05 04:39:48;;;;;;;7.60;4.18;;;;;;;;;;5082403;28;20064;-65
2023/05/05 04:42:14;;;;;;;8.35;4.10;;;;;;;;;;5065863;28;20147;-67
2023/05/05 04:44:40;;;;;;;8.50;4.25;;;;;;;;;;5074112;28;20052;-67
2023/05/05 04:47:07;;;;;;;7.53;3.97;;;;;;;;;;5080596;28;20086;-66
2023/05/05 04:49:33;;;;;;;11.75;4.15;;;;;;;;;;5083299;28;20060;-66
2023/05/05 04:52:01;;;;;;;8.13;3.92;;;;;;;;;;5081298;28;20144;-68
2023/05/05 04:54:28;;;;;;;9.55;4.57;;;;;;;;;;5077338;28;20052;-68
2023/05/05 04:56:56;;;;;;;7.70;3.50;;;;;;;;;;5073471;28;20105;-67
2023/05/05 04:59:22;;;;;;;7.67;3.70;;;;;;;;;;5079616;28;20060;-68
2023/05/05 05:01:49;;;;;;;8.57;4.03;;;;;;;;;;5080961;28;20086;-65
2023/05/05 05:04:17;;;;;;;7.82;3.65;;;;;;;;;;5078630;28;20133;-67
2023/05/05 05:06:44;;;;;;;7.90;3.90;;;;;;;;;;5052507;28;20053;-67
2023/05/05 05:09:10;;;;;;;8.25;3.65;;;;;;;;;;5063961;28;20107;-67
2023/05/05 05:11:39;;;;;;;8.38;3.90;;;;;;;;;;5079998;28;20180;-66
2023/05/05 05:14:07;;;;;;;6.50;3.42;;;;;;;;;;5061798;28;20514;-65
2023/05/05 05:16:35;;;;;;;8.57;3.67;;;;;;;;;;5053655;28;20072;-68
2023/05/05 05:19:02;;;;;;;7.40;3.75;;;;;;;;;;5060304;28;20108;-65
2023/05/05 05:21:28;;;;;;;7.85;3.30;;;;;;;;;;5061329;28;20084;-65
2023/05/05 05:23:55;;;;;;;7.47;3.70;;;;;;;;;;5058337;28;20589;-65
2023/05/05 05:26:22;;;;;;;9.93;3.67;;;;;;;;;;5049899;28;20132;-65
2023/05/05 05:28:48;;;;;;;8.18;3.00;;;;;;;;;;5052880;28;20060;-66
2023/05/05 05:31:16;;;;;;;6.80;3.42;;;;;;;;;;5060066;28;20060;-64
2023/05/05 05:33:43;;;;;;;6.50;2.92;;;;;;;;;;5058662;28;20067;-66
2023/05/05 05:36:11;;;;;;;;;;;;;;;;;;5030915;28;20048;-67
2023/05/05 05:38:39;;;;;;;7.80;3.40;;;;;;;;;;5032319;28;19921;-65
2023/05/05 05:41:07;;;;;;;6.20;3.17;;;;;;;;;;5056168;28;20129;-65
2023/05/05 05:43:38;;;;;;;7.00;3.20;;;;;;;;;;5061831;28;20064;-67
2023/05/05 05:46:05;;;;;;;7.90;3.22;;;;;;;;;;5048709;28;20075;-65
2023/05/05 05:48:33;;;;;;;7.25;3.47;;;;;;;;;;5039620;28;20081;-66
2023/05/05 05:51:00;;;;;;;10.90;3.80;;;;;;;;;;5052459;28;20139;-66
2023/05/05 05:53:27;;;;;;;6.53;3.40;;;;;;;;;;5062811;28;20061;-65
2023/05/05 05:55:53;;;;;;;7.18;3.30;;;;;;;;;;5054748;28;20049;-65
2023/05/05 05:58:20;;;;;;;9.20;3.08;;;;;;;;;;5062536;28;20083;-67
2023/05/05 06:00:47;;;;;;;7.43;3.17;;;;;;;;;;5050034;28;20245;-65
2023/05/05 06:03:14;;;;;;;7.18;3.05;;;;;;;;;;5061947;28;20052;-64
2023/05/05 06:05:42;;;;;;;6.55;2.97;;;;;;;;;;5070705;28;20058;-64
2023/05/05 06:08:08;;;;;;;7.03;3.30;;;;;;;;;;5105546;28;20058;-64
2023/05/05 06:10:36;;;;;;;8.20;3.22;;;;;;;;;;5080975;28;20378;-67
2023/05/05 06:13:02;;;;;;;7.78;3.13;;;;;;;;;;5079717;28;20058;-65
2023/05/05 06:15:30;;;;;;;7.57;3.03;;;;;;;;;;5060049;28;20177;-66
2023/05/05 06:17:56;;;;;;;5.97;3.00;;;;;;;;;;5083498;28;20090;-65
2023/05/05 06:20:25;;;;;;;8.70;3.05;;;;;;;;;;5082758;28;20138;-65
2023/05/05 06:22:54;;;;;;;5.65;2.90;;;;;;;;;;5073517;28;20103;-66
2023/05/05 06:25:20;;;;;;;6.63;3.05;;;;;;;;;;5054940;28;20051;-63
2023/05/05 06:27:47;;;;;;;8.82;3.40;;;;;;;;;;5079280;28;20059;-66
2023/05/05 06:30:14;;;;;;;8.25;3.47;;;;;;;;;;5083034;28;20051;-64
2023/05/05 06:32:41;;;;;;;7.75;3.78;;;;;;;;;;5092021;28;20051;-64
2023/05/05 06:35:07;;;;;;;5.68;2.80;;;;;;;;;;5089422;28;20058;-64
2023/05/05 06:37:37;;;;;;;8.27;3.80;;;;;;;;;;5094111;28;20075;-65
2023/05/05 06:40:09;;;;;;;6.72;3.33;;;;;;;;;;5081632;28;20112;-65
2023/05/05 06:42:35;;;;;;;7.63;3.38;;;;;;;;;;5084854;28;20060;-65
2023/05/05 06:45:01;;;;;;;7.95;3.72;;;;;;;;;;5096257;28;20231;-65
2023/05/05 06:47:30;;;;;;;7.38;3.97;;;;;;;;;;5096259;28;20112;-65
2023/05/05 06:49:56;;;;;;;8.55;4.05;;;;;;;;;;5081425;28;20063;-66
2023/05/05 06:52:23;;;;;;;9.77;4.05;;;;;;;;;;5078244;28;20058;-67
2023/05/05 06:54:49;;;;;;;12.32;4.32;;;;;;;;;;5075174;28;20079;-66
2023/05/05 06:57:17;;;;;;;8.00;3.78;;;;;;;;;;5080158;28;20056;-67
2023/05/05 07:02:47;;;;;;;8.00;3.90;;;;;;;;;;5079078;28;20286;-65
2023/05/05 07:05:14;;;;;;;10.75;4.18;;;;;;;;;;5075894;28;20075;-66
2023/05/05 07:07:41;;;;;;;9.07;4.28;;;;;;;;;;5063532;28;20063;-66
2023/05/05 07:10:08;;;;;;;8.75;4.03;;;;;;;;;;5070148;28;20051;-65
2023/05/05 07:12:36;;;;;;;9.05;4.35;;;;;;;;;;5066633;28;20070;-67
2023/05/05 07:15:03;;;;;;;11.80;4.55;;;;;;;;;;5063062;28;20087;-64
2023/05/05 07:17:29;;;;;;;9.13;4.40;;;;;;;;;;5082820;28;20064;-66
2023/05/05 07:19:55;;;;;;;9.63;4.00;;;;;;;;;;5078325;28;20192;-66
2023/05/05 07:22:25;;;;;;;9.80;4.25;;;;;;;;;;5080297;28;20052;-63
2023/05/05 07:27:56;;;;;;;10.45;4.75;;;;;;;;;;5063492;28;20040;-64
2023/05/05 07:30:24;;;;;;;13.02;4.40;;;;;;;;;;5073037;28;20056;-64
2023/05/05 07:32:51;;;;;;;9.23;4.82;;;;;;;;;;5059507;28;20051;-65
2023/05/05 07:35:17;;;;;;;8.60;4.32;;;;;;;;;;5064950;28;20136;-65
2023/05/05 07:37:44;;;;;;;10.15;4.93;;;;;;;;;;5064620;28;20069;-66
2023/05/05 07:40:11;;;;;;;14.73;4.97;;;;;;;;;;5072484;28;20064;-66
2023/05/05 07:42:37;;;;;;;12.13;4.97;;;;;;;;;;5075804;28;20068;-64
2023/05/05 07:45:05;;;;;;;9.93;4.55;;;;;;;;;;5069630;28;20048;-66
2023/05/05 07:47:32;;;;;;;;;;;;;;;;;;5096765;28;20056;-63
2023/05/05 07:49:59;;;;;;;8.95;4.38;;;;;;;;;;5079819;28;19923;-64
2023/05/05 07:52:26;;;;;;;10.38;4.72;;;;;;;;;;5081382;28;20063;-65
2023/05/05 07:54:52;;;;;;;13.40;5.00;;;;;;;;;;5073730;28;20059;-67
2023/05/05 07:57:19;;;;;;;11.10;5.20;;;;;;;;;;5083236;28;20074;-65
2023/05/05 07:59:45;;;;;;;9.25;4.97;;;;;;;;;;5078918;28;20062;-65
2023/05/05 08:02:13;;;;;;;9.52;4.30;;;;;;;;;;5083028;28;20056;-64
2023/05/05 08:04:40;;;;;;;10.93;4.68;;;;;;;;;;5062041;28;20162;-65
2023/05/05 08:07:07;;;;;;;9.93;4.43;;;;;;;;;;5069659;28;20088;-65
2023/05/05 08:09:36;;;;;;;10.40;4.75;;;;;;;;;;5079420;28;20183;-66
2023/05/05 08:12:02;;;;;;;13.05;4.85;;;;;;;;;;5080922;28;20059;-67
2023/05/05 08:14:32;;;;;;;7.45;4.00;;;;;;;;;;5081063;28;20286;-66
2023/05/05 08:16:58;;;;;;;11.70;4.78;;;;;;;;;;5079000;28;20084;-67
2023/05/05 08:19:26;;;;;;;9.43;4.40;;;;;;;;;;5062164;28;20056;-64
2023/05/05 08:21:52;;;;;;;9.40;4.50;;;;;;;;;;5084910;28;20056;-67
2023/05/05 08:24:19;;;;;;;10.27;4.35;;;;;;;;;;5081324;28;20060;-67
2023/05/05 08:26:45;;;;;;;9.63;4.30;;;;;;;;;;5069783;28;20040;-65
2023/05/05 08:29:16;;;;;;;10.38;4.45;;;;;;;;;;5083035;28;20076;-65
2023/05/05 08:31:42;;;;;;;8.52;3.97;;;;;;;;;;5080765;28;20105;-68
2023/05/05 08:34:08;;;;;;;10.57;4.45;;;;;;;;;;5081834;28;20639;-65
2023/05/05 08:36:36;;;;;;;9.13;4.20;;;;;;;;;;5070839;28;20067;-65
2023/05/05 08:39:03;;;;;;;11.07;3.90;;;;;;;;;;5063902;28;20058;-64
2023/05/05 08:41:29;;;;;;;7.90;3.85;;;;;;;;;;5061371;28;20314;-67
2023/05/05 08:43:56;;;;;;;8.57;4.35;;;;;;;;;;5071339;28;20060;-67
2023/05/05 08:46:23;;;;;;;8.43;3.97;;;;;;;;;;5066441;28;20218;-65
2023/05/05 08:48:52;;;;;;;9.70;4.22;;;;;;;;;;5060895;28;20059;-64
2023/05/05 08:51:22;;;;;;;9.32;4.10;;;;;;;;;;5061189;28;20092;-70
2023/05/05 08:53:56;;;;;;;9.05;4.05;;;;;;;;;;5075819;28;20139;-67
2023/05/05 08:56:26;;;;;;;8.65;3.80;;;;;;;;;;5054624;28;20131;-63
2023/05/05 08:58:52;;;;;;;7.60;3.60;;;;;;;;;;5075018;27;21188;-68
2023/05/05 09:01:18;;;;;;;7.57;3.75;;;;;;;;;;5063279;28;20110;-65
2023/05/05 09:03:45;;;;;;;8.45;3.67;;;;;;;;;;5091581;28;20060;-64
2023/05/05 09:06:12;;;;;;;7.57;3.85;;;;;;;;;;5078919;28;20048;-67
2023/05/05 09:08:38;;;;;;;10.50;3.58;;;;;;;;;;5070340;28;20047;-68
2023/05/05 09:11:08;;;;;;;9.60;3.55;;;;;;;;;;5083809;28;20052;-68
2023/05/05 09:13:34;;;;;;;9.02;3.72;;;;;;;;;;5080000;28;20095;-65
2023/05/05 09:16:01;;;;;;;7.90;3.78;;;;;;;;;;5060273;28;20221;-69
2023/05/05 09:18:28;;;;;;;26.63;3.90;;;;;;;;;;5078140;28;20048;-68
2023/05/05 09:20:57;;;;;;;8.65;3.03;;;;;;;;;;5078366;28;20059;-67
2023/05/05 09:23:23;;;;;;;7.78;3.15;;;;;;;;;;5078310;28;20048;-65
2023/05/05 09:29:00;;;;;;;14.25;3.28;;;;;;;;;;5072873;28;20044;-67
2023/05/05 09:31:28;;;;;;;10.05;3.10;;;;;;;;;;5080010;28;20131;-65
2023/05/05 09:33:59;;;;;;;15.18;4.00;;;;;;;;;;5077117;28;20117;-64
2023/05/05 09:36:40;;;;;;;13.18;3.72;;;;;;;;;;5070682;28;20052;-66
2023/05/05 09:39:06;;;;;;;9.27;3.78;;;;;;;;;;5072088;28;20121;-68
2023/05/05 09:41:36;;;;;;;10.27;3.28;;;;;;;;;;5067500;28;20071;-66
2023/05/05 09:44:06;;;;;;;12.88;3.50;;;;;;;;;;5063908;28;20052;-66
2023/05/05 09:46:33;;;;;;;9.75;3.50;;;;;;;;;;5055085;28;20048;-68
2023/05/05 09:49:13;;;;;;;8.63;3.50;;;;;;;;;;5059977;28;20130;-66
2023/05/05 09:51:40;;;;;;;7.90;3.47;;;;;;;;;;5065228;28;20049;-65
2023/05/05 09:54:06;;;;;;;8.35;3.10;;;;;;;;;;5072105;28;20151;-67
2023/05/05 09:56:38;;;;;;;11.50;3.17;;;;;;;;;;5036269;28;20054;-68
2023/05/05 09:59:15;;;;;;;8.82;2.92;;;;;;;;;;5089366;28;20098;-70
2023/05/05 10:01:42;;;;;;;7.72;2.97;;;;;;;;;;5080107;28;20109;-65
2023/05/05 10:04:22;;;;;;;6.70;2.92;;;;;;;;;;5098192;28;20063;-68
2023/05/05 10:06:50;;;;;;;8.75;2.63;;;;;;;;;;5076894;28;20071;-64
2023/05/05 10:09:17;;;;;;;6.45;2.80;;;;;;;;;;5070591;28;20176;-66
2023/05/05 10:11:46;;;;;;;8.38;3.28;;;;;;;;;;5068121;28;20064;-67
2023/05/05 10:14:17;;;;;;;7.88;3.13;;;;;;;;;;5077133;28;20059;-65
2023/05/05 10:16:46;;;;;;;7.28;2.97;;;;;;;;;;5070474;28;20052;-67
2023/05/05 10:19:15;;;;;;;7.32;2.80;;;;;;;;;;5059533;28;20078;-65
2023/05/05 10:21:43;;;;;;;7.38;2.22;;;;;;;;;;5061022;28;20070;-66
2023/05/05 10:24:11;;;;;;;6.20;2.67;;;;;;;;;;5083201;28;20044;-66
2023/05/05 10:26:42;;;;;;;8.32;2.38;;;;;;;;;;5034826;28;20147;-67
2023/05/05 10:29:13;;;;;;;4.80;2.50;;;;;;;;;;5080197;28;20148;-68
2023/05/05 10:31:43;;;;;;;7.03;2.55;;;;;;;;;;5079836;28;20143;-66
2023/05/05 10:34:10;;;;;;;6.47;2.78;;;;;;;;;;5086096;28;20514;-66
2023/05/05 10:36:39;;;;;;;9.38;2.45;;;;;;;;;;5075985;28;20110;-64
2023/05/05 10:39:08;;;;;;;7.72;2.25;;;;;;;;;;5061363;28;20088;-68
2023/05/05 10:41:34;;;;;;;5.75;2.72;;;;;;;;;;5066007;28;20079;-65
2023/05/05 10:44:01;;;;;;;7.68;2.28;;;;;;;;;;5064411;28;20060;-68
2023/05/05 10:46:28;;;;;;;5.90;2.60;;;;;;;;;;5072514;28;20813;-67
2023/05/05 10:48:57;;;;;;;4.80;2.33;;;;;;;;;;5068895;28;20079;-67
2023/05/05 10:51:29;;;;;;;6.05;2.58;;;;;;;;;;5073551;28;20047;-67
2023/05/05 10:53:55;;;;;;;;;;;;;;;;;;5084361;28;20052;-64
2023/05/05 10:56:25;;;;;;;4.97;2.33;;;;;;;;;;5080988;28;19943;-66
2023/05/05 10:58:51;;;;;;;5.40;2.38;;;;;;;;;;5086721;28;20079;-67
2023/05/05 11:01:30;;;;;;;5.65;2.63;;;;;;;;;;5080010;28;20151;-66
2023/05/05 11:04:15;;;;;;;8.68;2.50;;;;;;;;;;5064609;28;20056;-68
2023/05/05 11:07:04;;;;;;;8.38;2.53;;;;;;;;;;5091102;27;20494;-65
2023/05/05 11:09:30;;;;;;;4.45;2.35;;;;;;;;;;5092106;27;21167;-65
2023/05/05 11:12:03;;;;;;;6.18;2.30;;;;;;;;;;5122241;27;20059;-65
2023/05/05 11:14:30;;;;;;;5.13;1.90;;;;;;;;;;5076391;28;20069;-66
2023/05/05 11:16:56;;;;;;;6.03;2.22;;;;;;;;;;5058512;28;20087;-68
2023/05/05 11:19:40;;;;;;;6.60;2.45;;;;;;;;;;5063070;28;20056;-65
2023/05/05 11:22:10;;;;;;;5.45;2.58;;;;;;;;;;5072817;28;20055;-66
2023/05/05 11:24:38;;;;;;;6.30;2.55;;;;;;;;;;5076043;28;20165;-70
2023/05/05 11:27:08;;;;;;;5.90;2.10;;;;;;;;;;5044427;28;20077;-69
2023/05/05 11:29:56;;;;;;;5.25;2.10;;;;;;;;;;5069193;27;20099;-68
2023/05/05 11:32:24;;;;;;;4.82;2.10;;;;;;;;;;5097890;27;20066;-73
2023/05/05 11:34:52;;;;;;;;;;;;;;;;;;5085395;28;20051;-70
2023/05/05 11:37:22;;;;;;;3.07;1.50;;;;;;;;;;5089764;28;19939;-70
2023/05/05 11:39:53;;;;;;;2.22;1.05;;;;;;;;;;5103929;27;20503;-66
2023/05/05 11:42:22;;;;;;;2.85;1.17;;;;;;;;;;5094942;28;20063;-70
2023/05/05 11:44:50;;;;;;;3.13;1.23;;;;;;;;;;5098722;27;20109;-67
2023/05/05 11:47:32;;;;;;;1.73;0.88;;;;;;;;;;5083008;27;20120;-74
2023/05/05 11:49:59;;;;;;;2.90;1.00;;;;;;;;;;5079578;28;20054;-68
2023/05/05 11:52:27;;;;;;;4.70;1.10;;;;;;;;;;5065686;28;20060;-71
2023/05/05 11:54:54;;;;;;;1.63;0.70;;;;;;;;;;5075015;28;20095;-68
2023/05/05 11:57:26;;;;;;;2.30;0.95;;;;;;;;;;5053729;28;20047;-68
2023/05/05 11:59:54;;;;;;;1.80;0.95;;;;;;;;;;5070468;28;20055;-70
2023/05/05 12:02:21;;;;;;;1.23;0.77;;;;;;;;;;5102986;28;20079;-65
2023/05/05 12:04:47;;;;;;;3.10;0.90;;;;;;;;;;5081460;28;20307;-70
2023/05/05 12:07:15;;;;;;;1.92;0.80;;;;;;;;;;5069218;28;20154;-68
2023/05/05 12:09:44;;;;;;;1.70;0.88;;;;;;;;;;5102328;27;20234;-70
2023/05/05 12:12:11;;;;;;;1.60;0.80;;;;;;;;;;5104549;28;20055;-67
2023/05/05 12:14:44;;;;;;;2.10;0.82;;;;;;;;;;5100716;28;20146;-71
2023/05/05 12:17:11;;;;;;;3.33;1.02;;;;;;;;;;5070954;28;20069;-69
2023/05/05 12:19:44;;;;;;;1.90;0.88;;;;;;;;;;5082179;28;20071;-68
2023/05/05 12:22:17;;;;;;;1.45;0.80;;;;;;;;;;5108235;28;20043;-70
2023/05/05 12:24:46;;;;;;;1.25;0.70;;;;;;;;;;5082683;28;20112;-70
2023/05/05 12:27:13;;;;;;;2.75;0.90;;;;;;;;;;5076546;28;20063;-68
2023/05/05 12:29:42;;;;;;;1.35;0.63;;;;;;;;;;5102965;27;20456;-72
2023/05/05 12:32:17;;;;;;;1.55;0.80;;;;;;;;;;5080655;28;20052;-71
2023/05/05 12:34:44;;;;;;;1.73;0.60;;;;;;;;;;5100722;28;20166;-69
2023/05/05 12:37:11;;;;;;;1.77;0.80;;;;;;;;;;5046922;28;20053;-67
2023/05/05 12:39:37;;;;;;;1.67;0.60;;;;;;;;;;5084292;28;20084;-70
2023/05/05 12:42:11;;;;;;;0.82;0.65;;;;;;;;;;5069666;28;20071;-69
2023/05/05 12:44:38;;;;;;;2.20;0.85;;;;;;;;;;5084088;28;20052;-68
2023/05/05 12:47:05;;;;;;;1.08;0.68;;;;;;;;;;5055876;28;20055;-69
2023/05/05 12:49:44;;;;;;;1.40;0.70;;;;;;;;;;5101965;28;20206;-72
2023/05/05 12:52:11;;;;;;;1.43;0.70;;;;;;;;;;5099189;28;20071;-70
2023/05/05 12:54:53;;;;;;;0.80;0.60;;;;;;;;;;5104793;28;20087;-68
2023/05/05 12:57:21;;;;;;;1.08;0.70;;;;;;;;;;5047074;28;20044;-69
2023/05/05 12:59:57;;;;;;;3.17;1.17;;;;;;;;;;5065008;28;20230;-70
2023/05/05 13:02:33;;;;;;;2.20;0.50;;;;;;;;;;5091287;28;20062;-69
2023/05/05 13:05:01;;;;;;;3.42;0.82;;;;;;;;;;5075447;28;20081;-70
2023/05/05 13:07:27;;;;;;;3.17;0.88;;;;;;;;;;5076992;28;20131;-69
2023/05/05 13:10:05;;;;;;;1.13;0.80;;;;;;;;;;5101817;27;20043;-72
2023/05/05 13:12:33;;;;;;;0.75;0.70;;;;;;;;;;5089061;28;20047;-69
2023/05/05 13:15:05;;;;;;;1.27;0.80;;;;;;;;;;5060339;28;20048;-69
2023/05/05 13:17:31;;;;;;;2.03;0.88;;;;;;;;;;5058358;28;20080;-70
2023/05/05 13:19:58;;;;;;;3.15;1.00;;;;;;;;;;5063508;28;20101;-70
2023/05/05 13:22:24;;;;;;;1.63;0.80;;;;;;;;;;5065780;28;20044;-70
2023/05/05 13:24:51;;;;;;;2.20;0.90;;;;;;;;;;5102947;28;20146;-67
2023/05/05 13:27:17;;;;;;;1.52;0.82;;;;;;;;;;5075793;28;20059;-71
2023/05/05 13:29:45;;;;;;;1.30;0.90;;;;;;;;;;5083811;28;20115;-71
2023/05/05 13:32:12;;;;;;;2.65;1.00;;;;;;;;;;5085224;28;20056;-74
2023/05/05 13:34:41;;;;;;;3.35;0.77;;;;;;;;;;5072497;28;20062;-71
2023/05/05 13:37:10;;;;;;;0.70;0.68;;;;;;;;;;5056115;28;20062;-70
2023/05/05 13:39:37;;;;;;;1.83;0.70;;;;;;;;;;5019719;28;20414;-68
2023/05/05 13:42:03;;;;;;;1.38;0.80;;;;;;;;;;5075976;28;20060;-74
2023/05/05 13:44:30;;;;;;;1.55;0.80;;;;;;;;;;5070921;28;20052;-71
2023/05/05 13:47:04;;;;;;;1.25;0.70;;;;;;;;;;5076276;28;20059;-68
2023/05/05 13:49:31;;;;;;;4.55;0.82;;;;;;;;;;5036950;28;20047;-70
2023/05/05 13:51:58;;;;;;;1.75;0.80;;;;;;;;;;5098275;28;20115;-69
2023/05/05 13:54:35;;;;;;;1.75;0.90;;;;;;;;;;5096982;28;20071;-72
2023/05/05 13:57:06;;;;;;;3.45;1.00;;;;;;;;;;5067782;28;20063;-71
2023/05/05 13:59:33;;;;;;;3.15;0.80;;;;;;;;;;5069205;28;20139;-72
2023/05/05 14:02:00;;;;;;;1.52;0.77;;;;;;;;;;5106146;28;20047;-70
2023/05/05 14:04:30;;;;;;;1.38;0.85;;;;;;;;;;5077121;28;20073;-68
2023/05/05 14:06:57;;;;;;;2.03;1.00;;;;;;;;;;5081544;28;20067;-68
2023/05/05 14:09:23;;;;;;;1.70;0.75;;;;;;;;;;5088871;28;20052;-68
2023/05/05 14:11:50;;;;;;;0.65;0.60;;;;;;;;;;5106217;28;20074;-71
2023/05/05 14:14:16;;;;;;;1.10;0.68;;;;;;;;;;5081836;28;20134;-68
2023/05/05 14:16:46;;;;;;;1.55;0.73;;;;;;;;;;5082726;28;20274;-72
2023/05/05 14:19:14;;;;;;;1.83;0.80;;;;;;;;;;5054298;28;20516;-72
2023/05/05 14:21:42;;;;;;;1.85;0.80;;;;;;;;;;5099985;28;20059;-71
2023/05/05 14:24:09;;;;;;;2.05;0.88;;;;;;;;;;5084075;28;20062;-70
2023/05/05 14:26:38;;;;;;;2.35;1.10;;;;;;;;;;5099468;28;20134;-70
2023/05/05 14:29:05;;;;;;;1.48;0.82;;;;;;;;;;5066958;28;20054;-70
2023/05/05 14:31:31;;;;;;;2.05;1.00;;;;;;;;;;5076999;28;20056;-71
2023/05/05 14:33:57;;;;;;;2.53;1.00;;;;;;;;;;5080196;28;20056;-70
2023/05/05 14:36:25;;;;;;;2.70;1.10;;;;;;;;;;5091910;28;20064;-71
2023/05/05 14:38:54;;;;;;;1.93;0.90;;;;;;;;;;5089350;28;20055;-71
2023/05/05 14:41:21;;;;;;;3.20;1.20;;;;;;;;;;5089171;28;20393;-70
2023/05/05 14:43:50;;;;;;;1.35;0.80;;;;;;;;;;5082425;28;20062;-71
2023/05/05 14:46:17;;;;;;;3.13;1.17;;;;;;;;;;5069712;28;20139;-70
2023/05/05 14:48:45;;;;;;;2.50;0.80;;;;;;;;;;5056305;28;20268;-70
2023/05/05 14:51:11;;;;;;;6.00;1.10;;;;;;;;;;5075475;28;20113;-68
2023/05/05 14:53:38;;;;;;;1.42;0.90;;;;;;;;;;5087526;28;20075;-69
2023/05/05 14:56:08;;;;;;;4.70;1.13;;;;;;;;;;5085774;28;20062;-72
2023/05/05 14:58:36;;;;;;;2.22;1.10;;;;;;;;;;5059642;28;20078;-70
2023/05/05 15:01:06;;;;;;;3.05;0.88;;;;;;;;;;5068465;28;20151;-72
2023/05/05 15:03:33;;;;;;;2.47;1.05;;;;;;;;;;5085247;28;20067;-69
2023/05/05 15:05:59;;;;;;;2.25;1.02;;;;;;;;;;5090771;28;20143;-71
2023/05/05 15:08:26;;;;;;;1.80;0.93;;;;;;;;;;5062995;28;20048;-71
2023/05/05 15:10:53;;;;;;;2.55;1.08;;;;;;;;;;5086833;28;20062;-71
2023/05/05 15:13:23;;;;;;;1.17;0.80;;;;;;;;;;5084682;28;20126;-71
2023/05/05 15:15:50;;;;;;;6.05;1.10;;;;;;;;;;5089434;28;20063;-71
2023/05/05 15:18:16;;;;;;;1.33;0.77;;;;;;;;;;5054865;28;20064;-70
2023/05/05 15:20:48;;;;;;;2.10;1.00;;;;;;;;;;5105195;27;20079;-69
2023/05/05 15:23:14;;;;;;;1.67;1.00;;;;;;;;;;5071695;28;20060;-69
2023/05/05 15:28:26;;;;;;;4.63;0.88;;;;;;;;;;5074581;28;20074;-70
2023/05/05 15:30:53;;;;;;;2.00;1.00;;;;;;;;;;5087534;28;20070;-70
2023/05/05 15:33:19;;;;;;;2.60;1.05;;;;;;;;;;5086224;27;20203;-69
2023/05/05 15:35:48;;;;;;;0.88;0.70;;;;;;;;;;5069826;28;20082;-72
2023/05/05 15:38:14;;;;;;;1.08;0.70;;;;;;;;;;5077245;28;20139;-69
2023/05/05 15:40:44;;;;;;;2.63;1.08;;;;;;;;;;5087523;28;20058;-69
2023/05/05 15:43:11;;;;;;;1.73;0.70;;;;;;;;;;5070049;28;20048;-69
2023/05/05 15:45:40;;;;;;;1.70;0.90;;;;;;;;;;5083283;28;20059;-68
2023/05/05 15:48:06;;;;;;;3.10;0.70;;;;;;;;;;5070220;28;20070;-67
2023/05/05 15:50:33;;;;;;;1.92;0.88;;;;;;;;;;5104872;27;20059;-69
2023/05/05 15:53:03;;;;;;;4.50;1.00;;;;;;;;;;5079329;27;20155;-68
2023/05/05 15:55:30;;;;;;;0.82;0.68;;;;;;;;;;5095702;28;20055;-68
2023/05/05 15:57:59;;;;;;;5.63;0.82;;;;;;;;;;5077518;28;20052;-69
2023/05/05 16:00:25;;;;;;;;;;;;;;;;;;5094837;28;20082;-69
2023/05/05 16:02:53;;;;;;;1.45;0.70;;;;;;;;;;5103709;28;20295;-68
2023/05/05 16:05:19;;;;;;;3.50;1.03;;;;;;;;;;5078118;28;20503;-69
2023/05/05 16:07:46;;;;;;;2.65;0.90;;;;;;;;;;5082295;28;20311;-68
2023/05/05 16:10:13;;;;;;;1.23;0.80;;;;;;;;;;5099538;28;20047;-68
2023/05/05 16:12:39;;;;;;;2.25;0.88;;;;;;;;;;5102672;28;20074;-69
2023/05/05 16:15:06;;;;;;;2.40;0.80;;;;;;;;;;5096556;27;20094;-68
2023/05/05 16:17:33;;;;;;;2.80;0.80;;;;;;;;;;5070218;28;20464;-69
2023/05/05 16:20:00;;;;;;;0.85;0.70;;;;;;;;;;5078092;28;20052;-69
2023/05/05 16:22:27;;;;;;;1.55;0.70;;;;;;;;;;5065039;28;20079;-67
2023/05/05 16:24:53;;;;;;;4.75;2.25;;;;;;;;;;5070589;28;20111;-66
2023/05/05 16:27:20;;;;;;;4.32;2.10;;;;;;;;;;5066671;28;20179;-67
2023/05/05 16:29:47;;;;;;;3.83;1.40;;;;;;;;;;5087052;28;20052;-68
2023/05/05 16:32:14;;;;;;;3.77;1.73;;;;;;;;;;5096000;28;20136;-68
2023/05/05 16:34:41;;;;;;;5.97;2.00;;;;;;;;;;5083809;28;21566;-67
2023/05/05 16:37:17;;;;;;;12.52;2.10;;;;;;;;;;5093536;28;20109;-70
2023/05/05 16:39:43;;;;;;;5.43;2.20;;;;;;;;;;5042731;28;20431;-68
2023/05/05 16:42:11;;;;;;;3.50;1.73;;;;;;;;;;5071273;28;20112;-67
2023/05/05 16:44:38;;;;;;;7.20;1.60;;;;;;;;;;5099256;28;20055;-67
2023/05/05 16:47:06;;;;;;;4.25;1.40;;;;;;;;;;5078461;27;20059;-68
2023/05/05 16:49:33;;;;;;;4.07;1.63;;;;;;;;;;5067484;28;20048;-67
2023/05/05 16:52:02;;;;;;;6.72;1.42;;;;;;;;;;5093326;28;20063;-67
2023/05/05 16:54:40;;;;;;;2.60;1.30;;;;;;;;;;5075212;28;20123;-68
2023/05/05 16:57:07;;;;;;;2.65;1.30;;;;;;;;;;5086492;28;20083;-69
2023/05/05 16:59:34;;;;;;;3.25;1.45;;;;;;;;;;5069311;27;20050;-66
2023/05/05 17:02:02;;;;;;;2.75;1.27;;;;;;;;;;5070849;28;20142;-67
2023/05/05 17:04:28;;;;;;;8.82;1.40;;;;;;;;;;5074677;28;20142;-68
2023/05/05 17:06:55;;;;;;;2.67;1.20;;;;;;;;;;5089974;28;20055;-66